sensor_id;sensor_type;location;lat;lon;timestamp;P1;durP1;ratioP1;P2;durP2;ratioP2
40122;SDS011;25832;45.490;4.912;2023-08-17T00:01:39;3.80;;;2.55;;
40122;SDS011;25832;45.490;4.912;2023-08-17T00:04:05;5.18;;;2.50;;
40122;SDS011;25832;45.490;4.912;2023-08-17T00:06:31;3.38;;;2.60;;
40122;SDS011;25832;45.490;4.912;2023-08-17T00:08:56;4.25;;;2.67;;
40122;SDS011;25832;45.490;4.912;2023-08-17T00:11:22;5.65;;;2.97;;
40122;SDS011;25832;45.490;4.912;2023-08-17T00:13:48;4.43;;;2.78;;
40122;SDS011;25832;45.490;4.912;2023-08-17T00:16:13;4.70;;;2.60;;
40122;SDS011;25832;45.490;4.912;2023-08-17T00:18:39;6.80;;;3.35;;
40122;SDS011;25832;45.490;4.912;2023-08-17T00:21:05;5.90;;;2.97;;
40122;SDS011;25832;45.490;4.912;2023-08-17T00:23:30;3.85;;;2.78;;
40122;SDS011;25832;45.490;4.912;2023-08-17T00:25:56;4.20;;;2.75;;
40122;SDS011;25832;45.490;4.912;2023-08-17T00:28:22;7.85;;;3.95;;
40122;SDS011;25832;45.490;4.912;2023-08-17T00:30:47;7.38;;;2.90;;
40122;SDS011;25832;45.490;4.912;2023-08-17T00:33:13;4.80;;;2.95;;
40122;SDS011;25832;45.490;4.912;2023-08-17T00:35:39;4.28;;;3.05;;
40122;SDS011;25832;45.490;4.912;2023-08-17T00:38:04;5.82;;;3.15;;
40122;SDS011;25832;45.490;4.912;2023-08-17T00:40:30;5.68;;;3.50;;
40122;SDS011;25832;45.490;4.912;2023-08-17T00:42:56;7.28;;;3.70;;
40122;SDS011;25832;45.490;4.912;2023-08-17T00:45:22;5.60;;;3.60;;
40122;SDS011;25832;45.490;4.912;2023-08-17T00:47:49;3.67;;;3.35;;
40122;SDS011;25832;45.490;4.912;2023-08-17T00:50:15;6.30;;;4.05;;
40122;SDS011;25832;45.490;4.912;2023-08-17T00:52:41;10.30;;;3.60;;
40122;SDS011;25832;45.490;4.912;2023-08-17T00:55:08;4.90;;;3.72;;
40122;SDS011;25832;45.490;4.912;2023-08-17T00:57:35;4.53;;;4.05;;
40122;SDS011;25832;45.490;4.912;2023-08-17T01:00:01;5.13;;;3.65;;
40122;SDS011;25832;45.490;4.912;2023-08-17T01:02:29;5.72;;;3.80;;
40122;SDS011;25832;45.490;4.912;2023-08-17T01:04:55;5.88;;;3.70;;
40122;SDS011;25832;45.490;4.912;2023-08-17T01:07:21;3.72;;;3.38;;
40122;SDS011;25832;45.490;4.912;2023-08-17T01:09:47;5.55;;;3.78;;
40122;SDS011;25832;45.490;4.912;2023-08-17T01:12:29;6.40;;;4.00;;
40122;SDS011;25832;45.490;4.912;2023-08-17T01:15:02;5.57;;;4.20;;
40122;SDS011;25832;45.490;4.912;2023-08-17T01:20:25;5.18;;;3.75;;
40122;SDS011;25832;45.490;4.912;2023-08-17T01:22:52;8.82;;;3.70;;
40122;SDS011;25832;45.490;4.912;2023-08-17T01:25:22;4.30;;;3.05;;
40122;SDS011;25832;45.490;4.912;2023-08-17T01:27:48;6.07;;;4.40;;
40122;SDS011;25832;45.490;4.912;2023-08-17T01:30:15;7.05;;;4.18;;
40122;SDS011;25832;45.490;4.912;2023-08-17T01:32:57;3.58;;;2.90;;
40122;SDS011;25832;45.490;4.912;2023-08-17T01:38:02;5.55;;;4.00;;
40122;SDS011;25832;45.490;4.912;2023-08-17T01:40:32;4.25;;;3.83;;
40122;SDS011;25832;45.490;4.912;2023-08-17T01:42:59;11.00;;;7.70;;
40122;SDS011;25832;45.490;4.912;2023-08-17T01:45:27;9.77;;;7.50;;
40122;SDS011;25832;45.490;4.912;2023-08-17T01:47:54;6.50;;;4.97;;
40122;SDS011;25832;45.490;4.912;2023-08-17T01:50:20;3.83;;;2.97;;
40122;SDS011;25832;45.490;4.912;2023-08-17T01:52:46;5.50;;;2.90;;
40122;SDS011;25832;45.490;4.912;2023-08-17T01:55:11;5.82;;;3.10;;
40122;SDS011;25832;45.490;4.912;2023-08-17T01:57:37;4.55;;;2.80;;
40122;SDS011;25832;45.490;4.912;2023-08-17T02:00:03;3.78;;;3.28;;
40122;SDS011;25832;45.490;4.912;2023-08-17T02:02:30;4.65;;;2.88;;
40122;SDS011;25832;45.490;4.912;2023-08-17T02:04:56;3.78;;;2.75;;
40122;SDS011;25832;45.490;4.912;2023-08-17T02:07:22;4.53;;;3.35;;
40122;SDS011;25832;45.490;4.912;2023-08-17T02:09:47;5.78;;;3.20;;
40122;SDS011;25832;45.490;4.912;2023-08-17T02:12:13;4.25;;;3.15;;
40122;SDS011;25832;45.490;4.912;2023-08-17T02:14:39;4.55;;;3.45;;
40122;SDS011;25832;45.490;4.912;2023-08-17T02:17:04;3.67;;;3.28;;
40122;SDS011;25832;45.490;4.912;2023-08-17T02:19:31;8.65;;;3.20;;
40122;SDS011;25832;45.490;4.912;2023-08-17T02:21:58;4.75;;;3.33;;
40122;SDS011;25832;45.490;4.912;2023-08-17T02:24:23;7.70;;;4.93;;
40122;SDS011;25832;45.490;4.912;2023-08-17T02:26:49;3.88;;;3.20;;
40122;SDS011;25832;45.490;4.912;2023-08-17T02:29:15;5.03;;;3.28;;
40122;SDS011;25832;45.490;4.912;2023-08-17T02:31:41;4.65;;;3.38;;
40122;SDS011;25832;45.490;4.912;2023-08-17T02:34:06;10.55;;;4.22;;
40122;SDS011;25832;45.490;4.912;2023-08-17T02:36:33;4.28;;;3.47;;
40122;SDS011;25832;45.490;4.912;2023-08-17T02:38:58;4.55;;;3.38;;
40122;SDS011;25832;45.490;4.912;2023-08-17T02:41:24;4.72;;;3.25;;
40122;SDS011;25832;45.490;4.912;2023-08-17T02:43:50;3.70;;;3.10;;
40122;SDS011;25832;45.490;4.912;2023-08-17T02:46:15;4.38;;;3.35;;
40122;SDS011;25832;45.490;4.912;2023-08-17T02:48:41;7.45;;;3.70;;
40122;SDS011;25832;45.490;4.912;2023-08-17T02:51:07;5.82;;;3.75;;
40122;SDS011;25832;45.490;4.912;2023-08-17T02:53:32;3.17;;;2.83;;
40122;SDS011;25832;45.490;4.912;2023-08-17T02:55:58;4.32;;;3.25;;
40122;SDS011;25832;45.490;4.912;2023-08-17T02:58:23;5.25;;;3.20;;
40122;SDS011;25832;45.490;4.912;2023-08-17T03:00:52;3.40;;;3.10;;
40122;SDS011;25832;45.490;4.912;2023-08-17T03:03:18;7.13;;;3.20;;
40122;SDS011;25832;45.490;4.912;2023-08-17T03:05:44;5.47;;;3.15;;
40122;SDS011;25832;45.490;4.912;2023-08-17T03:08:10;4.63;;;3.03;;
40122;SDS011;25832;45.490;4.912;2023-08-17T03:10:36;4.72;;;3.13;;
40122;SDS011;25832;45.490;4.912;2023-08-17T03:13:02;3.58;;;2.60;;
40122;SDS011;25832;45.490;4.912;2023-08-17T03:15:28;4.72;;;3.25;;
40122;SDS011;25832;45.490;4.912;2023-08-17T03:17:54;4.68;;;2.70;;
40122;SDS011;25832;45.490;4.912;2023-08-17T03:20:19;4.25;;;3.17;;
40122;SDS011;25832;45.490;4.912;2023-08-17T03:22:45;3.50;;;3.15;;
40122;SDS011;25832;45.490;4.912;2023-08-17T03:25:11;4.95;;;2.88;;
40122;SDS011;25832;45.490;4.912;2023-08-17T03:27:37;6.03;;;3.03;;
40122;SDS011;25832;45.490;4.912;2023-08-17T03:30:03;4.50;;;3.25;;
40122;SDS011;25832;45.490;4.912;2023-08-17T03:32:29;3.72;;;2.90;;
40122;SDS011;25832;45.490;4.912;2023-08-17T03:34:55;6.85;;;2.95;;
40122;SDS011;25832;45.490;4.912;2023-08-17T03:37:21;3.70;;;2.67;;
40122;SDS011;25832;45.490;4.912;2023-08-17T03:39:46;4.80;;;2.63;;
40122;SDS011;25832;45.490;4.912;2023-08-17T03:42:12;4.50;;;2.90;;
40122;SDS011;25832;45.490;4.912;2023-08-17T03:44:38;7.78;;;3.05;;
40122;SDS011;25832;45.490;4.912;2023-08-17T03:47:03;3.72;;;2.83;;
40122;SDS011;25832;45.490;4.912;2023-08-17T03:49:29;10.43;;;3.45;;
40122;SDS011;25832;45.490;4.912;2023-08-17T03:51:55;4.75;;;2.80;;
40122;SDS011;25832;45.490;4.912;2023-08-17T03:54:20;5.22;;;3.60;;
40122;SDS011;25832;45.490;4.912;2023-08-17T03:56:46;7.75;;;3.95;;
40122;SDS011;25832;45.490;4.912;2023-08-17T03:59:11;5.82;;;3.55;;
40122;SDS011;25832;45.490;4.912;2023-08-17T04:01:37;4.88;;;3.33;;
40122;SDS011;25832;45.490;4.912;2023-08-17T04:04:03;6.93;;;3.10;;
40122;SDS011;25832;45.490;4.912;2023-08-17T04:06:28;6.25;;;3.55;;
40122;SDS011;25832;45.490;4.912;2023-08-17T04:08:55;4.72;;;3.03;;
40122;SDS011;25832;45.490;4.912;2023-08-17T04:11:21;3.13;;;2.70;;
40122;SDS011;25832;45.490;4.912;2023-08-17T04:13:47;4.18;;;3.08;;
40122;SDS011;25832;45.490;4.912;2023-08-17T04:16:12;7.13;;;3.15;;
40122;SDS011;25832;45.490;4.912;2023-08-17T04:18:38;4.80;;;3.10;;
40122;SDS011;25832;45.490;4.912;2023-08-17T04:21:03;3.95;;;3.15;;
40122;SDS011;25832;45.490;4.912;2023-08-17T04:23:29;5.75;;;3.55;;
40122;SDS011;25832;45.490;4.912;2023-08-17T04:25:55;9.02;;;3.30;;
40122;SDS011;25832;45.490;4.912;2023-08-17T04:28:21;5.63;;;3.00;;
40122;SDS011;25832;45.490;4.912;2023-08-17T04:30:46;10.48;;;3.20;;
40122;SDS011;25832;45.490;4.912;2023-08-17T04:33:12;9.88;;;3.20;;
40122;SDS011;25832;45.490;4.912;2023-08-17T04:35:38;4.32;;;2.58;;
40122;SDS011;25832;45.490;4.912;2023-08-17T04:38:04;4.78;;;3.60;;
40122;SDS011;25832;45.490;4.912;2023-08-17T04:40:29;4.50;;;3.15;;
40122;SDS011;25832;45.490;4.912;2023-08-17T04:42:55;4.68;;;3.25;;
40122;SDS011;25832;45.490;4.912;2023-08-17T04:45:21;6.18;;;3.28;;
40122;SDS011;25832;45.490;4.912;2023-08-17T04:47:48;3.78;;;3.05;;
40122;SDS011;25832;45.490;4.912;2023-08-17T04:50:14;3.70;;;2.50;;
40122;SDS011;25832;45.490;4.912;2023-08-17T04:52:42;11.48;;;3.17;;
40122;SDS011;25832;45.490;4.912;2023-08-17T04:55:10;5.32;;;2.72;;
40122;SDS011;25832;45.490;4.912;2023-08-17T04:57:37;3.70;;;2.78;;
40122;SDS011;25832;45.490;4.912;2023-08-17T05:00:03;5.57;;;2.90;;
40122;SDS011;25832;45.490;4.912;2023-08-17T05:02:33;6.38;;;3.00;;
40122;SDS011;25832;45.490;4.912;2023-08-17T05:04:59;3.65;;;2.88;;
40122;SDS011;25832;45.490;4.912;2023-08-17T05:07:25;8.65;;;3.22;;
40122;SDS011;25832;45.490;4.912;2023-08-17T05:09:50;5.18;;;3.47;;
40122;SDS011;25832;45.490;4.912;2023-08-17T05:12:16;11.05;;;3.45;;
40122;SDS011;25832;45.490;4.912;2023-08-17T05:14:41;6.55;;;3.30;;
40122;SDS011;25832;45.490;4.912;2023-08-17T05:17:07;6.20;;;2.95;;
40122;SDS011;25832;45.490;4.912;2023-08-17T05:19:33;4.53;;;3.33;;
40122;SDS011;25832;45.490;4.912;2023-08-17T05:21:58;8.38;;;3.63;;
40122;SDS011;25832;45.490;4.912;2023-08-17T05:24:24;4.22;;;3.30;;
40122;SDS011;25832;45.490;4.912;2023-08-17T05:26:50;3.40;;;2.97;;
40122;SDS011;25832;45.490;4.912;2023-08-17T05:29:15;8.25;;;3.58;;
40122;SDS011;25832;45.490;4.912;2023-08-17T05:31:41;7.13;;;3.25;;
40122;SDS011;25832;45.490;4.912;2023-08-17T05:34:07;3.05;;;2.60;;
40122;SDS011;25832;45.490;4.912;2023-08-17T05:36:32;6.25;;;3.88;;
40122;SDS011;25832;45.490;4.912;2023-08-17T05:38:58;8.05;;;2.90;;
40122;SDS011;25832;45.490;4.912;2023-08-17T05:41:23;3.80;;;2.97;;
40122;SDS011;25832;45.490;4.912;2023-08-17T05:43:52;3.78;;;2.90;;
40122;SDS011;25832;45.490;4.912;2023-08-17T05:46:18;4.35;;;3.08;;
40122;SDS011;25832;45.490;4.912;2023-08-17T05:48:43;6.28;;;3.47;;
40122;SDS011;25832;45.490;4.912;2023-08-17T05:51:09;13.63;;;5.38;;
40122;SDS011;25832;45.490;4.912;2023-08-17T05:53:34;5.40;;;3.13;;
40122;SDS011;25832;45.490;4.912;2023-08-17T05:56:00;6.13;;;3.88;;
40122;SDS011;25832;45.490;4.912;2023-08-17T05:58:26;5.15;;;3.65;;
40122;SDS011;25832;45.490;4.912;2023-08-17T06:00:51;9.18;;;3.55;;
40122;SDS011;25832;45.490;4.912;2023-08-17T06:03:17;4.97;;;2.50;;
40122;SDS011;25832;45.490;4.912;2023-08-17T06:05:42;4.82;;;3.58;;
40122;SDS011;25832;45.490;4.912;2023-08-17T06:08:08;6.38;;;3.03;;
40122;SDS011;25832;45.490;4.912;2023-08-17T06:10:34;9.80;;;3.22;;
40122;SDS011;25832;45.490;4.912;2023-08-17T06:13:00;5.93;;;2.92;;
40122;SDS011;25832;45.490;4.912;2023-08-17T06:15:25;6.95;;;3.03;;
40122;SDS011;25832;45.490;4.912;2023-08-17T06:17:51;4.93;;;2.90;;
40122;SDS011;25832;45.490;4.912;2023-08-17T06:20:17;6.22;;;3.00;;
40122;SDS011;25832;45.490;4.912;2023-08-17T06:22:43;4.90;;;3.03;;
40122;SDS011;25832;45.490;4.912;2023-08-17T06:25:09;5.22;;;2.97;;
40122;SDS011;25832;45.490;4.912;2023-08-17T06:27:35;3.90;;;2.88;;
40122;SDS011;25832;45.490;4.912;2023-08-17T06:30:02;4.72;;;3.10;;
40122;SDS011;25832;45.490;4.912;2023-08-17T06:32:31;3.15;;;2.60;;
40122;SDS011;25832;45.490;4.912;2023-08-17T06:34:56;3.92;;;3.10;;
40122;SDS011;25832;45.490;4.912;2023-08-17T06:37:22;6.25;;;4.18;;
40122;SDS011;25832;45.490;4.912;2023-08-17T06:39:48;6.45;;;3.63;;
40122;SDS011;25832;45.490;4.912;2023-08-17T06:42:14;4.95;;;3.03;;
40122;SDS011;25832;45.490;4.912;2023-08-17T06:44:39;5.57;;;3.65;;
40122;SDS011;25832;45.490;4.912;2023-08-17T06:47:05;3.92;;;2.95;;
40122;SDS011;25832;45.490;4.912;2023-08-17T06:49:31;5.68;;;3.25;;
40122;SDS011;25832;45.490;4.912;2023-08-17T06:51:57;4.32;;;2.72;;
40122;SDS011;25832;45.490;4.912;2023-08-17T06:54:22;3.75;;;3.25;;
40122;SDS011;25832;45.490;4.912;2023-08-17T06:56:48;3.40;;;2.78;;
40122;SDS011;25832;45.490;4.912;2023-08-17T06:59:14;7.47;;;3.13;;
40122;SDS011;25832;45.490;4.912;2023-08-17T07:01:39;4.40;;;3.10;;
40122;SDS011;25832;45.490;4.912;2023-08-17T07:04:05;3.75;;;2.78;;
40122;SDS011;25832;45.490;4.912;2023-08-17T07:06:30;4.75;;;3.47;;
40122;SDS011;25832;45.490;4.912;2023-08-17T07:08:56;7.45;;;3.15;;
40122;SDS011;25832;45.490;4.912;2023-08-17T07:11:22;4.35;;;2.90;;
40122;SDS011;25832;45.490;4.912;2023-08-17T07:13:47;7.03;;;3.30;;
40122;SDS011;25832;45.490;4.912;2023-08-17T07:16:13;6.95;;;3.53;;
40122;SDS011;25832;45.490;4.912;2023-08-17T07:18:39;6.93;;;3.50;;
40122;SDS011;25832;45.490;4.912;2023-08-17T07:21:05;5.10;;;2.95;;
40122;SDS011;25832;45.490;4.912;2023-08-17T07:23:31;5.85;;;3.08;;
40122;SDS011;25832;45.490;4.912;2023-08-17T07:25:56;4.38;;;2.90;;
40122;SDS011;25832;45.490;4.912;2023-08-17T07:28:22;3.63;;;3.13;;
40122;SDS011;25832;45.490;4.912;2023-08-17T07:30:47;4.47;;;3.00;;
40122;SDS011;25832;45.490;4.912;2023-08-17T07:33:13;5.05;;;3.38;;
40122;SDS011;25832;45.490;4.912;2023-08-17T07:35:39;4.72;;;3.22;;
40122;SDS011;25832;45.490;4.912;2023-08-17T07:38:04;5.78;;;3.08;;
40122;SDS011;25832;45.490;4.912;2023-08-17T07:40:30;5.60;;;2.65;;
40122;SDS011;25832;45.490;4.912;2023-08-17T07:42:56;4.53;;;2.58;;
40122;SDS011;25832;45.490;4.912;2023-08-17T07:45:22;5.32;;;3.22;;
40122;SDS011;25832;45.490;4.912;2023-08-17T07:47:47;7.40;;;3.63;;
40122;SDS011;25832;45.490;4.912;2023-08-17T07:50:13;7.35;;;3.83;;
40122;SDS011;25832;45.490;4.912;2023-08-17T07:52:39;3.92;;;2.95;;
40122;SDS011;25832;45.490;4.912;2023-08-17T07:55:04;6.22;;;3.00;;
40122;SDS011;25832;45.490;4.912;2023-08-17T07:57:30;5.00;;;3.05;;
40122;SDS011;25832;45.490;4.912;2023-08-17T07:59:56;4.55;;;3.13;;
40122;SDS011;25832;45.490;4.912;2023-08-17T08:02:22;2.97;;;2.60;;
40122;SDS011;25832;45.490;4.912;2023-08-17T08:04:47;5.03;;;3.00;;
40122;SDS011;25832;45.490;4.912;2023-08-17T08:07:13;6.45;;;3.10;;
40122;SDS011;25832;45.490;4.912;2023-08-17T08:09:38;5.10;;;2.65;;
40122;SDS011;25832;45.490;4.912;2023-08-17T08:12:04;4.72;;;3.17;;
40122;SDS011;25832;45.490;4.912;2023-08-17T08:14:30;3.50;;;2.58;;
40122;SDS011;25832;45.490;4.912;2023-08-17T08:16:56;3.88;;;2.80;;
40122;SDS011;25832;45.490;4.912;2023-08-17T08:19:22;3.70;;;2.80;;
40122;SDS011;25832;45.490;4.912;2023-08-17T08:21:48;3.40;;;2.80;;
40122;SDS011;25832;45.490;4.912;2023-08-17T08:24:13;4.68;;;2.72;;
40122;SDS011;25832;45.490;4.912;2023-08-17T08:26:39;2.60;;;2.10;;
40122;SDS011;25832;45.490;4.912;2023-08-17T08:29:05;4.03;;;2.75;;
40122;SDS011;25832;45.490;4.912;2023-08-17T08:31:30;6.45;;;2.83;;
40122;SDS011;25832;45.490;4.912;2023-08-17T08:33:56;4.88;;;2.35;;
40122;SDS011;25832;45.490;4.912;2023-08-17T08:36:21;4.78;;;3.17;;
40122;SDS011;25832;45.490;4.912;2023-08-17T08:38:47;6.70;;;2.75;;
40122;SDS011;25832;45.490;4.912;2023-08-17T08:41:13;4.97;;;2.92;;
40122;SDS011;25832;45.490;4.912;2023-08-17T08:43:38;6.10;;;2.90;;
40122;SDS011;25832;45.490;4.912;2023-08-17T08:46:04;3.72;;;2.40;;
40122;SDS011;25832;45.490;4.912;2023-08-17T08:48:31;4.65;;;3.10;;
40122;SDS011;25832;45.490;4.912;2023-08-17T08:50:58;11.75;;;3.20;;
40122;SDS011;25832;45.490;4.912;2023-08-17T08:53:32;7.43;;;3.05;;
40122;SDS011;25832;45.490;4.912;2023-08-17T08:56:03;5.63;;;3.05;;
40122;SDS011;25832;45.490;4.912;2023-08-17T08:58:29;4.03;;;3.08;;
40122;SDS011;25832;45.490;4.912;2023-08-17T09:00:58;3.88;;;2.70;;
40122;SDS011;25832;45.490;4.912;2023-08-17T09:03:25;5.93;;;2.95;;
40122;SDS011;25832;45.490;4.912;2023-08-17T09:05:51;4.63;;;2.67;;
40122;SDS011;25832;45.490;4.912;2023-08-17T09:08:20;3.42;;;2.35;;
40122;SDS011;25832;45.490;4.912;2023-08-17T09:10:56;3.50;;;2.58;;
40122;SDS011;25832;45.490;4.912;2023-08-17T09:13:22;3.72;;;2.80;;
40122;SDS011;25832;45.490;4.912;2023-08-17T09:15:48;4.97;;;2.42;;
40122;SDS011;25832;45.490;4.912;2023-08-17T09:18:13;4.60;;;3.03;;
40122;SDS011;25832;45.490;4.912;2023-08-17T09:20:42;8.43;;;2.60;;
40122;SDS011;25832;45.490;4.912;2023-08-17T09:23:13;8.50;;;3.08;;
40122;SDS011;25832;45.490;4.912;2023-08-17T09:25:42;12.07;;;2.63;;
40122;SDS011;25832;45.490;4.912;2023-08-17T09:28:12;5.85;;;2.90;;
40122;SDS011;25832;45.490;4.912;2023-08-17T09:30:56;5.75;;;3.53;;
40122;SDS011;25832;45.490;4.912;2023-08-17T09:33:23;4.13;;;2.40;;
40122;SDS011;25832;45.490;4.912;2023-08-17T09:35:50;4.45;;;2.22;;
40122;SDS011;25832;45.490;4.912;2023-08-17T09:38:17;5.18;;;2.95;;
40122;SDS011;25832;45.490;4.912;2023-08-17T09:40:43;4.35;;;2.60;;
40122;SDS011;25832;45.490;4.912;2023-08-17T09:43:10;3.05;;;2.20;;
40122;SDS011;25832;45.490;4.912;2023-08-17T09:45:39;7.72;;;2.55;;
40122;SDS011;25832;45.490;4.912;2023-08-17T09:48:05;2.38;;;2.13;;
40122;SDS011;25832;45.490;4.912;2023-08-17T09:50:32;5.00;;;3.42;;
40122;SDS011;25832;45.490;4.912;2023-08-17T09:52:58;4.40;;;2.38;;
40122;SDS011;25832;45.490;4.912;2023-08-17T09:55:24;4.43;;;2.60;;
40122;SDS011;25832;45.490;4.912;2023-08-17T09:57:51;6.22;;;2.50;;
40122;SDS011;25832;45.490;4.912;2023-08-17T10:00:20;2.65;;;2.40;;
40122;SDS011;25832;45.490;4.912;2023-08-17T10:02:49;7.35;;;2.50;;
40122;SDS011;25832;45.490;4.912;2023-08-17T10:05:19;3.08;;;2.33;;
40122;SDS011;25832;45.490;4.912;2023-08-17T10:07:47;7.40;;;2.65;;
40122;SDS011;25832;45.490;4.912;2023-08-17T10:10:25;4.03;;;2.63;;
40122;SDS011;25832;45.490;4.912;2023-08-17T10:15:20;4.50;;;2.63;;
40122;SDS011;25832;45.490;4.912;2023-08-17T10:17:55;3.22;;;2.63;;
40122;SDS011;25832;45.490;4.912;2023-08-17T10:20:27;2.40;;;2.20;;
40122;SDS011;25832;45.490;4.912;2023-08-17T10:23:10;6.63;;;2.65;;
40122;SDS011;25832;45.490;4.912;2023-08-17T10:25:41;3.05;;;1.95;;
40122;SDS011;25832;45.490;4.912;2023-08-17T10:28:11;3.63;;;2.55;;
40122;SDS011;25832;45.490;4.912;2023-08-17T10:30:37;3.90;;;2.03;;
40122;SDS011;25832;45.490;4.912;2023-08-17T10:33:04;5.68;;;2.33;;
40122;SDS011;25832;45.490;4.912;2023-08-17T10:35:31;3.15;;;2.65;;
40122;SDS011;25832;45.490;4.912;2023-08-17T10:37:58;4.97;;;2.50;;
40122;SDS011;25832;45.490;4.912;2023-08-17T10:40:28;3.08;;;2.22;;
40122;SDS011;25832;45.490;4.912;2023-08-17T10:42:54;4.53;;;2.38;;
40122;SDS011;25832;45.490;4.912;2023-08-17T10:45:29;5.63;;;2.23;;
40122;SDS011;25832;45.490;4.912;2023-08-17T10:50:38;2.75;;;2.47;;
40122;SDS011;25832;45.490;4.912;2023-08-17T10:53:05;9.18;;;2.90;;
40122;SDS011;25832;45.490;4.912;2023-08-17T10:55:44;6.20;;;2.53;;
40122;SDS011;25832;45.490;4.912;2023-08-17T10:58:10;3.00;;;2.42;;
40122;SDS011;25832;45.490;4.912;2023-08-17T11:00:40;2.65;;;2.10;;
40122;SDS011;25832;45.490;4.912;2023-08-17T11:03:17;5.00;;;2.33;;
40122;SDS011;25832;45.490;4.912;2023-08-17T11:05:45;5.35;;;2.55;;
40122;SDS011;25832;45.490;4.912;2023-08-17T11:08:21;5.75;;;2.38;;
40122;SDS011;25832;45.490;4.912;2023-08-17T11:11:11;4.10;;;2.10;;
40122;SDS011;25832;45.490;4.912;2023-08-17T11:13:39;4.25;;;2.25;;
40122;SDS011;25832;45.490;4.912;2023-08-17T11:16:10;2.72;;;2.33;;
40122;SDS011;25832;45.490;4.912;2023-08-17T11:18:37;4.03;;;2.40;;
40122;SDS011;25832;45.490;4.912;2023-08-17T11:21:03;3.67;;;2.15;;
40122;SDS011;25832;45.490;4.912;2023-08-17T11:23:30;7.65;;;2.85;;
40122;SDS011;25832;45.490;4.912;2023-08-17T11:25:57;3.75;;;2.58;;
40122;SDS011;25832;45.490;4.912;2023-08-17T11:28:23;3.33;;;1.85;;
40122;SDS011;25832;45.490;4.912;2023-08-17T11:30:57;5.22;;;2.50;;
40122;SDS011;25832;45.490;4.912;2023-08-17T11:33:26;6.63;;;2.85;;
40122;SDS011;25832;45.490;4.912;2023-08-17T11:35:59;6.78;;;2.40;;
40122;SDS011;25832;45.490;4.912;2023-08-17T11:38:29;4.18;;;2.25;;
40122;SDS011;25832;45.490;4.912;2023-08-17T11:40:59;3.40;;;1.88;;
40122;SDS011;25832;45.490;4.912;2023-08-17T11:43:26;4.20;;;2.10;;
40122;SDS011;25832;45.490;4.912;2023-08-17T11:45:54;6.10;;;2.38;;
40122;SDS011;25832;45.490;4.912;2023-08-17T11:48:20;5.30;;;2.10;;
40122;SDS011;25832;45.490;4.912;2023-08-17T11:50:46;4.38;;;2.13;;
40122;SDS011;25832;45.490;4.912;2023-08-17T11:53:13;3.35;;;2.10;;
40122;SDS011;25832;45.490;4.912;2023-08-17T11:55:38;3.53;;;2.33;;
40122;SDS011;25832;45.490;4.912;2023-08-17T11:58:04;2.10;;;1.90;;
40122;SDS011;25832;45.490;4.912;2023-08-17T12:00:34;3.67;;;2.08;;
40122;SDS011;25832;45.490;4.912;2023-08-17T12:03:02;2.90;;;1.73;;
40122;SDS011;25832;45.490;4.912;2023-08-17T12:05:30;3.95;;;2.53;;
40122;SDS011;25832;45.490;4.912;2023-08-17T12:07:56;2.90;;;2.22;;
40122;SDS011;25832;45.490;4.912;2023-08-17T12:10:23;6.57;;;2.55;;
40122;SDS011;25832;45.490;4.912;2023-08-17T12:12:52;4.05;;;2.55;;
40122;SDS011;25832;45.490;4.912;2023-08-17T12:15:17;3.42;;;2.60;;
40122;SDS011;25832;45.490;4.912;2023-08-17T12:17:44;4.88;;;2.25;;
40122;SDS011;25832;45.490;4.912;2023-08-17T12:20:17;3.15;;;2.30;;
40122;SDS011;25832;45.490;4.912;2023-08-17T12:22:43;8.32;;;3.25;;
40122;SDS011;25832;45.490;4.912;2023-08-17T12:25:09;3.38;;;2.42;;
40122;SDS011;25832;45.490;4.912;2023-08-17T12:27:35;2.70;;;2.22;;
40122;SDS011;25832;45.490;4.912;2023-08-17T12:30:01;4.88;;;2.08;;
40122;SDS011;25832;45.490;4.912;2023-08-17T12:32:28;3.05;;;2.25;;
40122;SDS011;25832;45.490;4.912;2023-08-17T12:34:53;4.88;;;2.70;;
40122;SDS011;25832;45.490;4.912;2023-08-17T12:37:19;3.22;;;2.30;;
40122;SDS011;25832;45.490;4.912;2023-08-17T12:39:46;3.45;;;2.40;;
40122;SDS011;25832;45.490;4.912;2023-08-17T12:42:12;2.78;;;2.17;;
40122;SDS011;25832;45.490;4.912;2023-08-17T12:44:39;6.13;;;2.72;;
40122;SDS011;25832;45.490;4.912;2023-08-17T12:47:05;3.83;;;2.22;;
40122;SDS011;25832;45.490;4.912;2023-08-17T12:49:31;5.97;;;2.63;;
40122;SDS011;25832;45.490;4.912;2023-08-17T12:51:57;4.15;;;2.15;;
40122;SDS011;25832;45.490;4.912;2023-08-17T12:54:22;2.42;;;2.20;;
40122;SDS011;25832;45.490;4.912;2023-08-17T12:56:48;3.00;;;2.53;;
40122;SDS011;25832;45.490;4.912;2023-08-17T12:59:14;3.53;;;2.60;;
40122;SDS011;25832;45.490;4.912;2023-08-17T13:01:39;4.43;;;2.50;;
40122;SDS011;25832;45.490;4.912;2023-08-17T13:04:05;2.65;;;1.95;;
40122;SDS011;25832;45.490;4.912;2023-08-17T13:06:31;5.63;;;2.28;;
40122;SDS011;25832;45.490;4.912;2023-08-17T13:08:57;5.97;;;2.47;;
40122;SDS011;25832;45.490;4.912;2023-08-17T13:11:22;4.50;;;2.33;;
40122;SDS011;25832;45.490;4.912;2023-08-17T13:13:48;4.70;;;2.55;;
40122;SDS011;25832;45.490;4.912;2023-08-17T13:16:13;3.53;;;2.50;;
40122;SDS011;25832;45.490;4.912;2023-08-17T13:18:39;3.55;;;3.00;;
40122;SDS011;25832;45.490;4.912;2023-08-17T13:21:05;7.32;;;3.55;;
40122;SDS011;25832;45.490;4.912;2023-08-17T13:23:30;4.60;;;2.50;;
40122;SDS011;25832;45.490;4.912;2023-08-17T13:25:56;10.20;;;2.80;;
40122;SDS011;25832;45.490;4.912;2023-08-17T13:28:22;5.78;;;2.15;;
40122;SDS011;25832;45.490;4.912;2023-08-17T13:30:47;3.22;;;2.30;;
40122;SDS011;25832;45.490;4.912;2023-08-17T13:33:13;4.57;;;2.65;;
40122;SDS011;25832;45.490;4.912;2023-08-17T13:35:41;4.25;;;2.38;;
40122;SDS011;25832;45.490;4.912;2023-08-17T13:38:07;5.07;;;3.33;;
40122;SDS011;25832;45.490;4.912;2023-08-17T13:40:33;4.40;;;2.55;;
40122;SDS011;25832;45.490;4.912;2023-08-17T13:42:59;3.95;;;2.72;;
40122;SDS011;25832;45.490;4.912;2023-08-17T13:45:25;2.15;;;1.92;;
40122;SDS011;25832;45.490;4.912;2023-08-17T13:47:51;4.15;;;3.15;;
40122;SDS011;25832;45.490;4.912;2023-08-17T13:50:17;4.55;;;2.63;;
40122;SDS011;25832;45.490;4.912;2023-08-17T13:52:43;2.78;;;2.22;;
40122;SDS011;25832;45.490;4.912;2023-08-17T13:55:10;5.07;;;2.70;;
40122;SDS011;25832;45.490;4.912;2023-08-17T13:57:35;3.80;;;2.80;;
40122;SDS011;25832;45.490;4.912;2023-08-17T14:00:01;4.15;;;2.72;;
40122;SDS011;25832;45.490;4.912;2023-08-17T14:02:29;4.93;;;2.60;;
40122;SDS011;25832;45.490;4.912;2023-08-17T14:04:55;5.35;;;2.85;;
40122;SDS011;25832;45.490;4.912;2023-08-17T14:07:20;3.70;;;2.70;;
40122;SDS011;25832;45.490;4.912;2023-08-17T14:09:46;4.70;;;3.42;;
40122;SDS011;25832;45.490;4.912;2023-08-17T14:12:11;3.97;;;2.53;;
40122;SDS011;25832;45.490;4.912;2023-08-17T14:14:37;6.47;;;2.70;;
40122;SDS011;25832;45.490;4.912;2023-08-17T14:17:03;4.30;;;2.60;;
40122;SDS011;25832;45.490;4.912;2023-08-17T14:19:28;2.95;;;2.63;;
40122;SDS011;25832;45.490;4.912;2023-08-17T14:21:54;4.38;;;2.50;;
40122;SDS011;25832;45.490;4.912;2023-08-17T14:24:20;3.17;;;2.42;;
40122;SDS011;25832;45.490;4.912;2023-08-17T14:26:46;4.45;;;2.13;;
40122;SDS011;25832;45.490;4.912;2023-08-17T14:29:12;3.67;;;2.75;;
40122;SDS011;25832;45.490;4.912;2023-08-17T14:31:38;4.55;;;2.67;;
40122;SDS011;25832;45.490;4.912;2023-08-17T14:34:03;5.25;;;2.40;;
40122;SDS011;25832;45.490;4.912;2023-08-17T14:36:29;2.88;;;2.30;;
40122;SDS011;25832;45.490;4.912;2023-08-17T14:38:55;4.90;;;2.63;;
40122;SDS011;25832;45.490;4.912;2023-08-17T14:41:20;4.18;;;2.67;;
40122;SDS011;25832;45.490;4.912;2023-08-17T14:43:46;4.50;;;2.88;;
40122;SDS011;25832;45.490;4.912;2023-08-17T14:46:11;5.32;;;2.58;;
40122;SDS011;25832;45.490;4.912;2023-08-17T14:48:37;5.63;;;2.22;;
40122;SDS011;25832;45.490;4.912;2023-08-17T14:51:03;5.35;;;2.55;;
40122;SDS011;25832;45.490;4.912;2023-08-17T14:53:28;3.70;;;2.72;;
40122;SDS011;25832;45.490;4.912;2023-08-17T14:55:54;3.88;;;3.00;;